Time;durP1;ratioP1;P1;durP2;ratioP2;P2;SDS_P1;SDS_P2;PMS_P1;PMS_P2;Temp;Humidity;BMP_temperature;BMP_pressure;BME280_temperature;BME280_humidity;BME280_pressure;Samples;Min_cycle;Max_cycle;Signal;HPM_P1;HPM_P2
2022/03/20 00:01:59;;;;;;;3.97;2.50;;;;;;;-2.86;69.07;99658.84;5104059;28;20232;-86
2022/03/20 00:04:29;;;;;;;6.10;3.60;;;;;;;-2.71;69.06;99701.88;5091881;28;20269;-90
2022/03/20 00:07:01;;;;;;;4.68;2.63;;;;;;;-2.57;68.37;99705.69;5083707;28;20107;-83
2022/03/20 00:09:33;;;;;;;4.93;3.15;;;;;;;-2.49;67.35;99703.31;5089156;28;20056;-84
2022/03/20 00:12:04;;;;;;;4.60;3.03;;;;;;;-2.72;66.92;99700.09;5096873;28;20103;-83
2022/03/20 00:14:35;;;;;;;3.45;2.65;;;;;;;-2.80;67.65;99712.69;5083598;28;20092;-83
2022/03/20 00:17:06;;;;;;;4.80;2.88;;;;;;;-3.00;69.07;99683.13;5083635;28;20127;-83
2022/03/20 00:19:37;;;;;;;5.57;3.10;;;;;;;-2.92;69.24;99717.44;5083703;28;20095;-83
2022/03/20 00:22:08;;;;;;;4.97;3.30;;;;;;;-3.00;69.90;99718.91;5091600;28;20051;-82
2022/03/20 00:24:42;;;;;;;6.55;3.42;;;;;;;-3.01;71.08;99718.06;5087926;28;20109;-85
2022/03/20 00:27:14;;;;;;;4.88;3.00;;;;;;;-3.00;72.05;99718.91;5083529;28;20041;-84
2022/03/20 00:29:45;;;;;;;7.72;3.25;;;;;;;-3.06;72.35;99715.38;5083413;28;20052;-84
2022/03/20 00:32:16;;;;;;;7.20;3.03;;;;;;;-3.03;72.28;99710.34;5089702;28;20055;-83
2022/03/20 00:34:47;;;;;;;4.35;2.50;;;;;;;-2.96;71.69;99725.88;5103772;28;20048;-84
2022/03/20 00:37:18;;;;;;;5.57;2.63;;;;;;;-2.96;70.65;99710.53;5103107;28;20080;-81
2022/03/20 00:39:50;;;;;;;4.57;2.60;;;;;;;-2.82;70.52;99729.69;5103514;28;20348;-82
2022/03/20 00:42:21;;;;;;;4.97;2.97;;;;;;;-2.77;70.27;99723.03;5103858;28;20052;-81
2022/03/20 00:44:53;;;;;;;4.75;3.00;;;;;;;-2.52;69.71;99723.69;5087686;28;20066;-82
2022/03/20 00:47:24;;;;;;;7.32;3.00;;;;;;;-2.68;68.34;99707.06;5097622;28;20111;-81
2022/03/20 00:49:55;;;;;;;3.22;2.38;;;;;;;-2.51;67.11;99725.44;5102915;28;20107;-82
2022/03/20 00:52:26;;;;;;;5.05;2.22;;;;;;;-2.85;66.53;99658.84;5103464;28;20082;-82
2022/03/20 00:54:58;;;;;;;4.97;2.30;;;;;;;-2.41;66.68;99735.09;5095716;28;20044;-81
2022/03/20 00:57:29;;;;;;;3.60;2.45;;;;;;;-2.36;66.29;99715.59;5103383;28;20048;-83
2022/03/20 01:00:00;;;;;;;2.67;1.95;;;;;;;-2.24;65.49;99726.16;5103407;28;20052;-82
2022/03/20 01:02:39;;;;;;;4.90;2.85;;;;;;;-2.35;65.44;99732.69;5103282;28;20048;-85
2022/03/20 01:05:12;;;;;;;6.15;2.55;;;;;;;-2.34;64.95;99724.19;5103673;28;20062;-85
2022/03/20 01:07:44;;;;;;;5.88;2.33;;;;;;;-2.14;64.14;99726.41;5103389;28;20066;-87
2022/03/20 01:10:16;;;;;;;5.15;3.00;;;;;;;-1.99;62.81;99727.66;5103593;28;20044;-84
2022/03/20 01:12:47;;;;;;;3.20;2.30;;;;;;;-2.09;61.29;99704.38;5103838;28;20044;-84
2022/03/20 01:15:18;;;;;;;3.70;2.80;;;;;;;-1.80;61.17;99708.53;5103916;28;20097;-84
2022/03/20 01:17:54;;;;;;;7.82;2.53;;;;;;;-1.33;60.86;99716.44;5104636;28;20125;-82
2022/03/20 01:20:24;;;;;;;2.67;2.20;;;;;;;-1.19;58.69;99718.47;5104008;28;20107;-81
2022/03/20 01:22:55;;;;;;;6.78;3.38;;;;;;;-1.48;58.86;99695.59;5104907;28;20078;-82
2022/03/20 01:25:30;;;;;;;4.05;2.67;;;;;;;-1.32;59.34;99701.94;5104853;28;20044;-84
2022/03/20 01:28:03;;;;;;;6.07;2.95;;;;;;;-1.38;58.76;99707.78;5111619;28;20059;-83
2022/03/20 01:30:34;;;;;;;6.80;3.15;;;;;;;-1.21;58.04;99699.59;5118726;28;20035;-83
2022/03/20 01:33:04;;;;;;;4.30;2.60;;;;;;;-1.13;57.15;99706.63;5118275;28;20054;-82
2022/03/20 01:35:35;;;;;;;4.90;3.05;;;;;;;-1.06;57.59;99704.19;5118488;28;20046;-82
2022/03/20 01:38:06;;;;;;;6.40;3.22;;;;;;;-0.81;56.69;99700.44;5112213;28;20040;-77
2022/03/20 01:40:39;;;;;;;2.80;2.45;;;;;;;-0.58;54.84;99699.19;5108883;28;20054;-77
2022/03/20 01:43:10;;;;;;;4.03;2.50;;;;;;;-0.75;55.66;99700.56;5112134;28;20063;-81
2022/03/20 01:45:41;;;;;;;3.42;2.50;;;;;;;-0.65;55.62;99687.06;5113884;28;20096;-79
2022/03/20 01:48:12;;;;;;;4.93;2.80;;;;;;;-0.32;55.42;99680.88;5109618;28;20080;-80
2022/03/20 01:50:45;;;;;;;6.00;3.10;;;;;;;-0.35;55.28;99671.41;5109862;28;20091;-83
2022/03/20 01:53:21;;;;;;;3.03;2.47;;;;;;;-0.25;54.17;99691.28;5108631;28;20059;-84
2022/03/20 01:55:53;;;;;;;3.60;2.60;;;;;;;-0.15;52.91;99684.59;5096731;28;20054;-82
2022/03/20 01:58:26;;;;;;;7.55;2.83;;;;;;;-0.37;53.00;99682.50;5096329;28;20107;-83
2022/03/20 02:01:00;;;;;;;2.72;2.03;;;;;;;-0.17;52.29;99686.28;5094940;28;20047;-81
2022/03/20 02:03:31;;;;;;;3.65;2.08;;;;;;;-0.37;50.92;99677.34;5095835;28;20201;-82
2022/03/20 02:06:02;;;;;;;3.15;2.17;;;;;;;-0.37;50.86;99677.34;5084637;28;20104;-82
2022/03/20 02:08:36;;;;;;;3.30;1.90;;;;;;;-0.34;51.16;99672.28;5095856;28;20044;-84
2022/03/20 02:11:12;;;;;;;7.93;2.58;;;;;;;-0.22;51.73;99677.63;5096507;28;20048;-82
2022/03/20 02:13:45;;;;;;;3.67;2.30;;;;;;;-0.21;50.73;99633.13;5094153;28;20052;-82
2022/03/20 02:16:16;;;;;;;3.53;2.15;;;;;;;0.26;50.57;99671.56;5099018;28;20115;-83
2022/03/20 02:18:48;;;;;;;2.70;2.03;;;;;;;0.23;49.07;99668.94;5091691;28;20044;-82
2022/03/20 02:21:43;;;;;;;2.30;1.80;;;;;;;0.01;49.66;99633.50;5086046;28;20055;-83
2022/03/20 02:24:33;;;;;;;3.63;2.38;;;;;;;0.21;49.45;99668.06;5093613;28;20273;-83
2022/03/20 02:27:07;;;;;;;;;;;;;;;0.15;48.82;99663.69;5092462;28;20041;-83
2022/03/20 02:29:39;;;;;;;2.58;1.88;;;;;;;0.02;50.15;99661.75;5100452;28;19958;-82
2022/03/20 02:32:12;;;;;;;2.22;1.70;;;;;;;-0.06;48.92;99668.47;5098143;28;20286;-82
2022/03/20 02:34:45;;;;;;;2.25;1.70;;;;;;;-0.30;50.36;99668.91;5099065;28;20040;-83
2022/03/20 02:37:20;;;;;;;3.35;2.22;;;;;;;-0.31;49.65;99646.66;5086538;28;20332;-83
2022/03/20 02:39:51;;;;;;;2.88;2.10;;;;;;;0.16;49.97;99654.28;5100391;28;20213;-82
2022/03/20 02:42:23;;;;;;;2.50;2.00;;;;;;;0.58;48.71;99640.34;5094841;28;20051;-79
2022/03/20 02:44:58;;;;;;;3.00;1.63;;;;;;;0.57;47.44;99646.31;5098959;28;20048;-82
2022/03/20 02:47:30;;;;;;;2.05;1.65;;;;;;;0.26;47.90;99603.91;5087696;28;20052;-80
2022/03/20 02:50:03;;;;;;;2.38;1.73;;;;;;;0.34;48.56;99651.97;5090222;28;20347;-79
2022/03/20 02:52:47;;;;;;;2.53;1.85;;;;;;;-0.14;49.83;99614.41;5105876;28;20048;-79
2022/03/20 02:55:19;;;;;;;3.00;1.75;;;;;;;0.22;49.32;99628.66;5102512;28;20044;-79
2022/03/20 02:57:50;;;;;;;3.67;2.00;;;;;;;0.18;48.45;99635.47;5106109;28;20084;-81
2022/03/20 03:00:24;;;;;;;1.75;1.58;;;;;;;0.07;50.04;99634.44;5093755;28;20269;-79
2022/03/20 03:02:56;;;;;;;3.25;1.63;;;;;;;0.23;49.86;99645.81;5102006;28;20042;-81
2022/03/20 03:05:29;;;;;;;1.50;1.40;;;;;;;0.34;48.10;99639.13;5094048;28;20271;-79
2022/03/20 03:10:59;;;;;;;2.10;1.73;;;;;;;0.19;48.14;99618.34;5107984;28;20079;-80
2022/03/20 03:13:31;;;;;;;1.52;1.40;;;;;;;0.05;48.40;99645.53;5101645;28;20046;-81
2022/03/20 03:16:04;;;;;;;1.27;1.17;;;;;;;-0.10;48.30;99600.78;5104174;28;20058;-81
2022/03/20 03:18:35;;;;;;;1.60;1.20;;;;;;;0.13;47.69;99618.28;5110029;28;20051;-81
2022/03/20 03:21:06;;;;;;;1.35;1.25;;;;;;;0.03;48.68;99606.13;5109480;28;20067;-81
2022/03/20 03:23:39;;;;;;;2.47;1.60;;;;;;;0.20;48.41;99614.94;5107361;28;20088;-81
2022/03/20 03:26:10;;;;;;;1.27;1.17;;;;;;;-0.04;47.46;99590.59;5108161;28;20104;-81
2022/03/20 03:28:40;;;;;;;1.70;1.30;;;;;;;-0.19;48.96;99592.94;5115334;28;20056;-80
2022/03/20 03:31:12;;;;;;;1.60;1.27;;;;;;;-0.03;48.57;99558.06;5112272;28;20100;-81
2022/03/20 03:36:28;;;;;;;2.03;1.60;;;;;;;1.45;46.78;99578.75;5090593;28;20044;-80
2022/03/20 03:39:00;;;;;;;1.52;1.23;;;;;;;1.51;43.80;99558.19;5097841;28;20050;-80
2022/03/20 03:41:31;;;;;;;1.80;1.30;;;;;;;1.13;45.48;99581.84;5102778;28;20054;-79
2022/03/20 03:44:01;;;;;;;1.50;1.30;;;;;;;0.99;47.28;99573.13;5100689;28;20067;-83
2022/03/20 03:46:34;;;;;;;1.60;1.50;;;;;;;0.35;51.31;99568.91;5087437;28;20082;-86
2022/03/20 03:49:12;;;;;;;3.75;1.75;;;;;;;-0.11;56.01;99583.63;5100639;28;20296;-88
2022/03/20 03:51:43;;;;;;;5.32;1.70;;;;;;;-0.39;56.62;99576.34;5103544;28;20430;-86
2022/03/20 03:54:17;;;;;;;2.78;1.85;;;;;;;-0.43;56.70;99576.28;5097438;28;20079;-87
2022/03/20 03:56:51;;;;;;;2.83;1.75;;;;;;;-0.64;54.55;99509.22;5099595;28;20052;-87
2022/03/20 03:59:22;;;;;;;1.67;1.30;;;;;;;-0.30;50.52;99555.94;5101427;28;20093;-87
2022/03/20 04:01:56;;;;;;;1.65;1.20;;;;;;;-0.17;51.24;99563.03;5095342;28;20040;-87
2022/03/20 04:04:27;;;;;;;1.92;1.50;;;;;;;-0.12;50.73;99561.38;5101949;28;20044;-86
2022/03/20 04:07:16;;;;;;;2.95;1.27;;;;;;;-0.09;48.17;99515.19;5100820;28;20044;-87
2022/03/20 04:10:02;;;;;;;2.47;1.60;;;;;;;0.24;47.74;99467.69;5083246;28;20086;-87
2022/03/20 04:12:43;;;;;;;2.40;1.30;;;;;;;0.15;48.02;99395.63;5085964;28;20044;-88
2022/03/20 04:15:21;;;;;;;1.92;1.73;;;;;;;1.02;47.54;99490.81;5101646;28;20096;-88
2022/03/20 04:18:17;;;;;;;1.38;1.23;;;;;;;1.21;47.43;99461.84;5091530;28;20040;-87
2022/03/20 04:20:53;;;;;;;1.40;1.30;;;;;;;1.97;46.60;99532.78;5080786;28;20055;-88
2022/03/20 04:26:15;;;;;;;1.45;1.30;;;;;;;1.99;45.42;99509.63;5093034;28;20072;-88
2022/03/20 04:28:55;;;;;;;2.20;1.50;;;;;;;1.90;44.84;99521.59;5093942;28;20071;-88
2022/03/20 04:31:32;;;;;;;1.20;1.10;;;;;;;1.69;44.71;99537.75;5090461;28;20337;-88
2022/03/20 04:34:04;;;;;;;1.60;1.08;;;;;;;0.71;43.69;99449.38;5091365;28;20110;-88
2022/03/20 04:36:53;;;;;;;1.80;1.20;;;;;;;1.21;44.76;99539.03;5092463;28;20040;-87
2022/03/20 04:39:24;;;;;;;1.30;1.20;;;;;;;1.24;45.28;99543.34;5098235;28;20048;-86
2022/03/20 04:41:59;;;;;;;2.50;1.40;;;;;;;1.00;45.63;99541.38;5095360;28;20321;-85
2022/03/20 04:44:30;;;;;;;1.65;1.48;;;;;;;0.82;46.61;99530.09;5083058;28;20080;-84
2022/03/20 04:47:01;;;;;;;1.75;1.60;;;;;;;0.89;48.20;99545.56;5092615;28;20360;-81
2022/03/20 04:58:35;;;;;;;1.83;1.50;;;;;;;0.74;49.33;99526.53;5089742;28;20054;-82
2022/03/20 05:01:06;;;;;;;2.00;1.67;;;;;;;0.83;48.68;99531.78;5092885;28;20078;-83
2022/03/20 05:03:37;;;;;;;2.28;1.55;;;;;;;0.91;48.42;99523.31;5093681;28;20052;-83
2022/03/20 05:06:09;;;;;;;2.45;2.00;;;;;;;1.46;46.06;99518.69;5095080;28;20392;-82
2022/03/20 05:08:40;;;;;;;1.65;1.55;;;;;;;1.75;44.04;99521.50;5091620;28;20040;-82
2022/03/20 05:14:04;;;;;;;1.52;1.42;;;;;;;1.82;44.57;99481.16;5091612;28;20255;-83
2022/03/20 05:16:34;;;;;;;3.25;1.67;;;;;;;2.18;44.78;99505.44;5093321;28;20143;-82
2022/03/20 05:19:05;;;;;;;2.65;1.80;;;;;;;2.02;45.24;99514.78;5093061;28;20047;-82
2022/03/20 05:21:38;;;;;;;1.65;1.50;;;;;;;1.78;44.54;99512.94;5094158;28;20051;-83
2022/03/20 05:24:13;;;;;;;1.85;1.60;;;;;;;1.55;45.68;99503.31;5089461;28;20299;-83
2022/03/20 05:26:44;;;;;;;2.00;1.60;;;;;;;1.22;44.42;99515.06;5094212;28;20094;-83
2022/03/20 05:29:16;;;;;;;2.33;1.77;;;;;;;1.06;45.73;99508.03;5088806;28;20072;-83
2022/03/20 05:31:47;;;;;;;1.88;1.33;;;;;;;1.08;45.67;99507.19;5088959;28;20074;-82
2022/03/20 05:34:18;;;;;;;2.50;1.70;;;;;;;1.09;44.82;99513.19;5093678;28;20098;-82
2022/03/20 05:36:56;;;;;;;3.97;1.98;;;;;;;1.12;45.25;99528.66;5090620;28;20158;-82
2022/03/20 05:39:31;;;;;;;3.63;1.75;;;;;;;1.01;46.34;99527.69;5086937;28;20059;-82
2022/03/20 05:42:01;;;;;;;1.70;1.20;;;;;;;0.71;47.87;99516.22;5086546;28;20398;-82
2022/03/20 05:44:34;;;;;;;2.38;1.35;;;;;;;0.64;49.39;99519.56;5089629;28;20047;-82
2022/03/20 05:47:05;;;;;;;3.95;1.60;;;;;;;0.56;50.09;99516.91;5099841;28;20108;-82
2022/03/20 05:49:36;;;;;;;3.30;1.77;;;;;;;0.39;51.99;99506.41;5090401;28;20051;-82
2022/03/20 05:52:07;;;;;;;4.28;1.70;;;;;;;0.54;52.02;99517.72;5093369;28;20051;-81
2022/03/20 05:54:38;;;;;;;4.20;1.60;;;;;;;0.52;51.23;99504.00;5097672;28;20083;-81
2022/03/20 05:59:58;;;;;;;3.97;1.75;;;;;;;0.42;50.90;99498.78;5097699;28;20097;-83
2022/03/20 06:02:29;;;;;;;3.10;1.48;;;;;;;0.58;49.98;99540.06;5095238;28;20094;-82
2022/03/20 06:05:00;;;;;;;6.28;1.80;;;;;;;0.71;51.50;99547.09;5094346;28;20054;-82
2022/03/20 06:07:31;;;;;;;4.45;1.80;;;;;;;0.77;51.87;99548.84;5098018;28;20052;-82
2022/03/20 06:10:02;;;;;;;4.20;1.67;;;;;;;0.83;51.75;99544.66;5095227;28;20044;-82
2022/03/20 06:12:32;;;;;;;4.15;2.03;;;;;;;0.64;52.44;99545.28;5094204;28;20052;-82
2022/03/20 06:15:08;;;;;;;4.35;1.95;;;;;;;0.37;51.24;99551.78;5083532;28;20121;-81
2022/03/20 06:17:40;;;;;;;5.13;1.98;;;;;;;0.11;52.19;99553.16;5081373;28;20248;-81
2022/03/20 06:20:11;;;;;;;4.38;2.10;;;;;;;-0.20;52.68;99514.19;5082875;28;20165;-80
2022/03/20 06:22:43;;;;;;;3.03;2.05;;;;;;;-0.11;53.82;99557.97;5084276;28;20342;-81
2022/03/20 06:25:15;;;;;;;4.30;2.30;;;;;;;-0.67;54.81;99504.03;5090394;28;20359;-80
2022/03/20 06:27:47;;;;;;;4.70;2.60;;;;;;;-0.41;55.15;99558.34;5095629;28;20055;-81
2022/03/20 06:30:30;;;;;;;4.15;2.20;;;;;;;-1.19;55.04;99457.84;5092607;28;20040;-82
2022/03/20 06:33:02;;;;;;;4.50;2.15;;;;;;;-0.53;55.99;99564.13;5082579;28;20062;-81
2022/03/20 06:35:32;;;;;;;4.25;2.50;;;;;;;-0.64;56.27;99550.25;5082694;28;20131;-81
2022/03/20 06:38:03;;;;;;;6.95;2.72;;;;;;;-0.74;57.00;99550.94;5099754;28;20044;-81
2022/03/20 06:40:34;;;;;;;6.80;2.83;;;;;;;-0.59;57.78;99576.00;5091906;28;20041;-80
2022/03/20 06:43:05;;;;;;;8.65;2.70;;;;;;;-0.44;57.65;99569.44;5100198;28;20107;-79
2022/03/20 06:45:37;;;;;;;6.75;2.78;;;;;;;-0.28;56.04;99574.81;5096432;28;20048;-80
2022/03/20 06:48:15;;;;;;;9.13;3.05;;;;;;;-0.50;55.64;99564.19;5096388;28;20050;-85
2022/03/20 06:51:11;;;;;;;10.50;2.50;;;;;;;-1.32;56.43;99415.75;5062418;28;20048;-83
2022/03/20 06:54:00;;;;;;;6.53;2.25;;;;;;;-0.90;55.80;99511.31;5099115;28;20048;-84
2022/03/20 06:56:31;;;;;;;5.05;2.55;;;;;;;-1.31;55.64;99453.34;5090847;28;20391;-84
2022/03/20 06:59:14;;;;;;;5.72;2.78;;;;;;;-0.46;56.23;99581.38;5084757;28;20091;-83
2022/03/20 07:01:49;;;;;;;5.40;2.40;;;;;;;-0.53;55.18;99578.66;5061802;28;20052;-82
2022/03/20 07:04:21;;;;;;;7.03;3.20;;;;;;;-0.69;55.84;99598.06;5097597;28;20079;-83
2022/03/20 07:06:59;;;;;;;5.82;3.25;;;;;;;-1.24;55.79;99515.00;5103094;28;20051;-85
2022/03/20 07:09:30;;;;;;;8.93;2.65;;;;;;;-1.14;55.90;99558.75;5091242;28;20082;-84
2022/03/20 07:12:01;;;;;;;6.25;2.72;;;;;;;-1.28;56.68;99560.19;5098138;28;20047;-84
2022/03/20 07:14:33;;;;;;;8.43;2.95;;;;;;;-1.29;57.12;99578.13;5100514;28;20279;-88
2022/03/20 07:17:15;;;;;;;5.22;2.38;;;;;;;-1.30;57.55;99587.47;5097847;28;20067;-88
2022/03/20 07:19:49;;;;;;;6.63;2.95;;;;;;;-1.37;57.57;99596.75;5097084;28;20064;-87
2022/03/20 07:22:22;;;;;;;6.90;2.83;;;;;;;-1.45;58.14;99597.41;5084648;28;20320;-85
2022/03/20 07:24:53;;;;;;;7.03;3.08;;;;;;;-1.39;58.38;99607.81;5092756;28;20400;-85
2022/03/20 07:30:20;;;;;;;9.05;3.00;;;;;;;-1.65;58.03;99609.78;5067268;28;20288;-84
2022/03/20 07:32:52;;;;;;;8.30;3.20;;;;;;;-1.86;58.75;99590.56;5095857;28;20068;-82
2022/03/20 07:35:24;;;;;;;7.03;3.75;;;;;;;-1.86;59.18;99603.34;5102045;28;20060;-85
2022/03/20 07:37:55;;;;;;;9.43;3.42;;;;;;;-1.85;58.97;99628.13;5102195;28;20047;-84
2022/03/20 07:40:26;;;;;;;12.15;3.40;;;;;;;-2.05;58.87;99598.63;5101055;28;20054;-83
2022/03/20 07:42:57;;;;;;;5.13;2.60;;;;;;;-2.22;58.94;99581.19;5098723;28;20048;-84
2022/03/20 07:45:27;;;;;;;9.85;3.05;;;;;;;-2.09;59.12;99618.19;5100981;28;20052;-85
2022/03/20 07:48:02;;;;;;;9.93;3.20;;;;;;;-2.27;59.37;99608.38;5102729;28;20052;-86
2022/03/20 07:50:38;;;;;;;8.00;3.10;;;;;;;-2.17;59.59;99635.94;5100541;28;20428;-85
2022/03/20 07:53:09;;;;;;;10.60;2.90;;;;;;;-2.30;59.35;99633.88;5096182;28;20040;-86
2022/03/20 07:55:41;;;;;;;4.55;2.65;;;;;;;-2.30;59.29;99648.38;5099935;28;20044;-85
2022/03/20 07:58:12;;;;;;;9.27;3.42;;;;;;;-2.42;59.12;99648.91;5087274;28;20076;-86
2022/03/20 08:00:44;;;;;;;5.50;3.38;;;;;;;-2.43;59.55;99647.19;5084060;28;20055;-85
2022/03/20 08:03:18;;;;;;;8.48;3.63;;;;;;;-2.47;59.36;99655.59;5097490;28;20078;-88
2022/03/20 08:05:50;;;;;;;4.97;2.45;;;;;;;-2.62;59.41;99651.84;5093058;28;20048;-86
2022/03/20 08:08:26;;;;;;;6.40;3.08;;;;;;;-2.75;59.80;99659.97;5090421;28;20236;-85
2022/03/20 08:11:00;;;;;;;6.88;2.85;;;;;;;-2.75;59.85;99665.09;5082629;28;20047;-84
2022/03/20 08:17:03;;;;;;;8.77;4.45;;;;;;;-3.63;59.89;99559.56;5063946;28;20051;-87
2022/03/20 08:19:40;;;;;;;11.25;4.80;;;;;;;-3.29;60.24;99626.97;5060513;28;20120;-83
2022/03/20 08:22:21;;;;;;;12.75;4.72;;;;;;;-3.51;59.97;99628.88;5063212;28;20072;-83
2022/03/20 08:24:54;;;;;;;8.77;3.75;;;;;;;-3.03;60.10;99705.22;5057010;28;20053;-84
2022/03/20 08:27:25;;;;;;;9.45;4.47;;;;;;;-3.16;60.13;99692.91;5060359;28;20160;-83
2022/03/20 08:29:57;;;;;;;11.68;5.63;;;;;;;-3.21;60.20;99704.69;5059355;28;20045;-83
2022/03/20 08:32:32;;;;;;;8.48;3.67;;;;;;;-3.24;60.24;99704.59;5060562;28;20116;-83
2022/03/20 08:35:05;;;;;;;6.75;3.50;;;;;;;-3.32;60.39;99711.16;5084396;28;20111;-85
2022/03/20 08:37:38;;;;;;;10.30;4.07;;;;;;;-3.43;60.11;99722.75;5087865;28;20044;-85
2022/03/20 08:40:16;;;;;;;11.45;4.80;;;;;;;-3.71;60.53;99686.13;5097030;28;20332;-84
2022/03/20 08:42:52;;;;;;;6.72;2.78;;;;;;;-3.66;60.41;99704.16;5094712;28;20041;-84
2022/03/20 08:45:24;;;;;;;5.57;2.67;;;;;;;-3.67;60.74;99717.72;5092311;28;20104;-84
2022/03/20 08:47:55;;;;;;;7.55;3.70;;;;;;;-3.70;61.31;99715.94;5095294;28;20073;-84
2022/03/20 08:50:27;;;;;;;9.65;4.10;;;;;;;-3.79;61.49;99718.22;5102367;28;20260;-84
2022/03/20 08:52:58;;;;;;;17.88;5.95;;;;;;;-3.83;61.95;99721.47;5090106;28;20039;-84
2022/03/20 08:55:33;;;;;;;21.92;8.70;;;;;;;-3.93;62.13;99725.41;5096302;28;20059;-85
2022/03/20 08:58:04;;;;;;;11.50;4.78;;;;;;;-3.96;61.99;99726.19;5097077;28;20077;-84
2022/03/20 09:00:35;;;;;;;9.60;3.92;;;;;;;-3.96;62.44;99741.50;5100730;28;20090;-85
2022/03/20 09:03:06;;;;;;;12.57;3.80;;;;;;;-4.04;62.44;99732.72;5095344;28;20047;-84
2022/03/20 09:05:39;;;;;;;10.57;4.07;;;;;;;-4.19;62.35;99711.81;5097800;28;20063;-84
2022/03/20 09:08:10;;;;;;;11.95;4.50;;;;;;;-4.06;62.13;99747.09;5097421;28;20119;-84
2022/03/20 09:10:41;;;;;;;6.22;3.50;;;;;;;-4.09;62.38;99749.56;5087412;28;20080;-84
2022/03/20 09:13:11;;;;;;;10.68;3.33;;;;;;;-4.20;62.37;99745.75;5084412;28;20076;-84
2022/03/20 09:15:42;;;;;;;6.05;3.20;;;;;;;-4.31;62.31;99742.84;5096406;28;20251;-87
2022/03/20 09:21:03;;;;;;;15.85;3.90;;;;;;;-4.39;62.34;99737.47;5090986;28;20052;-84
2022/03/20 09:23:33;;;;;;;8.60;3.08;;;;;;;-4.25;62.15;99767.69;5097811;28;20259;-83
2022/03/20 09:26:04;;;;;;;7.57;3.80;;;;;;;-4.46;62.40;99745.72;5099487;28;20065;-84
2022/03/20 09:28:37;;;;;;;10.38;4.55;;;;;;;-4.37;62.62;99774.13;5090292;28;20050;-84
2022/03/20 09:31:11;;;;;;;10.00;3.40;;;;;;;-4.44;62.97;99784.00;5100486;28;20134;-82
2022/03/20 09:33:42;;;;;;;7.93;3.70;;;;;;;-4.48;62.98;99783.06;5097712;28;20316;-81
2022/03/20 09:36:14;;;;;;;7.35;3.30;;;;;;;-4.55;63.16;99788.75;5093955;28;20108;-80
2022/03/20 09:38:45;;;;;;;12.95;3.30;;;;;;;-4.61;63.25;99788.53;5088714;28;20149;-78
2022/03/20 09:41:17;;;;;;;10.15;3.55;;;;;;;-5.46;63.12;99700.44;5094131;28;20351;-86
2022/03/20 09:43:48;;;;;;;9.43;3.17;;;;;;;-4.83;63.59;99777.53;5095466;28;20052;-82
2022/03/20 09:46:23;;;;;;;6.28;3.40;;;;;;;-4.68;63.20;99796.75;5101865;28;20036;-83
2022/03/20 09:48:55;;;;;;;9.52;3.75;;;;;;;-4.77;63.27;99808.38;5089621;28;20082;-85
2022/03/20 09:51:28;;;;;;;5.78;3.35;;;;;;;-4.77;63.18;99808.38;5094319;28;20397;-84
2022/03/20 09:53:59;;;;;;;9.27;4.07;;;;;;;-4.79;63.22;99815.06;5086930;28;20051;-83
2022/03/20 09:56:34;;;;;;;6.07;3.20;;;;;;;-4.80;63.22;99823.50;5093608;28;20054;-84
2022/03/20 09:59:04;;;;;;;9.20;3.83;;;;;;;-4.84;63.19;99814.03;5081508;28;20056;-87
2022/03/20 10:01:36;;;;;;;8.20;3.45;;;;;;;-4.84;63.04;99820.78;5097087;28;20078;-82
2022/03/20 10:04:13;;;;;;;7.68;3.15;;;;;;;-4.87;63.07;99830.88;5101667;28;20052;-84
2022/03/20 10:06:45;;;;;;;9.27;3.70;;;;;;;-4.91;63.25;99824.81;5092118;28;20076;-83
2022/03/20 10:09:16;;;;;;;5.63;3.35;;;;;;;-4.94;63.82;99829.78;5088613;28;20078;-84
2022/03/20 10:11:51;;;;;;;12.07;3.90;;;;;;;-4.96;63.22;99831.41;5091817;28;20052;-86
2022/03/20 10:14:32;;;;;;;9.77;3.40;;;;;;;-5.02;63.34;99833.69;5089423;28;20064;-83
2022/03/20 10:17:14;;;;;;;12.27;3.20;;;;;;;-5.09;63.42;99834.25;5091144;28;20381;-82
2022/03/20 10:19:46;;;;;;;9.43;3.53;;;;;;;-5.00;63.46;99844.81;5091162;28;20282;-82
2022/03/20 10:22:21;;;;;;;10.38;3.35;;;;;;;-4.99;63.24;99856.78;5095557;28;20396;-83
2022/03/20 10:24:56;;;;;;;5.95;3.53;;;;;;;-5.29;62.96;99806.34;5089328;28;20071;-83
2022/03/20 10:27:27;;;;;;;8.18;3.13;;;;;;;-5.05;63.31;99856.50;5085971;28;20414;-83
2022/03/20 10:30:06;;;;;;;6.45;3.20;;;;;;;-5.31;63.17;99820.69;5094955;28;20123;-83
2022/03/20 10:32:37;;;;;;;9.00;3.45;;;;;;;-5.36;63.90;99847.66;5094391;28;20048;-83
2022/03/20 10:35:12;;;;;;;7.50;3.45;;;;;;;-5.24;63.51;99871.06;5091847;28;20130;-81
2022/03/20 10:37:54;;;;;;;6.57;2.95;;;;;;;-5.27;63.58;99870.94;5095958;28;20324;-81
2022/03/20 10:40:27;;;;;;;5.53;3.53;;;;;;;-5.23;63.73;99888.09;5096305;28;20049;-82
2022/03/20 10:43:09;;;;;;;7.82;3.22;;;;;;;-5.22;63.27;99888.94;5098549;28;20078;-82
2022/03/20 10:46:05;;;;;;;8.32;3.08;;;;;;;-5.32;63.33;99871.56;5105298;28;20127;-82
2022/03/20 10:48:40;;;;;;;6.75;3.45;;;;;;;-5.24;63.31;99886.34;5105924;28;20048;-87
2022/03/20 10:51:11;;;;;;;8.38;4.43;;;;;;;-5.29;63.16;99885.31;5105012;28;20075;-82
2022/03/20 10:53:56;;;;;;;10.10;3.75;;;;;;;-5.35;63.15;99867.22;5106285;28;20055;-81
2022/03/20 10:56:26;;;;;;;11.02;3.97;;;;;;;-5.24;63.37;99886.34;5102447;28;20098;-81
2022/03/20 10:58:57;;;;;;;9.57;4.72;;;;;;;-5.27;63.27;99890.44;5085446;28;20235;-81
2022/03/20 11:01:37;;;;;;;9.15;4.68;;;;;;;-5.44;63.31;99872.81;5089682;28;20066;-81
2022/03/20 11:04:09;;;;;;;9.70;4.40;;;;;;;-5.43;62.94;99876.22;5097665;28;20103;-81
2022/03/20 11:06:41;;;;;;;8.65;3.75;;;;;;;-5.27;63.22;99906.59;5099169;28;20040;-81
2022/03/20 11:09:14;;;;;;;6.38;4.05;;;;;;;-5.31;63.27;99907.28;5099981;28;20054;-82
2022/03/20 11:11:50;;;;;;;7.70;3.85;;;;;;;-5.65;63.14;99861.72;5102723;28;20108;-80
2022/03/20 11:14:22;;;;;;;7.25;4.00;;;;;;;-5.38;63.22;99897.66;5111021;28;20052;-81
2022/03/20 11:16:56;;;;;;;7.43;4.00;;;;;;;-5.42;62.98;99906.84;5100560;28;20122;-81
2022/03/20 11:19:29;;;;;;;9.80;3.95;;;;;;;-5.52;63.08;99908.91;5096010;28;20110;-81
2022/03/20 11:22:04;;;;;;;5.50;3.50;;;;;;;-5.70;63.13;99914.97;5109987;28;20104;-82
2022/03/20 11:24:38;;;;;;;8.65;3.65;;;;;;;-5.98;63.44;99881.56;5119064;28;20028;-81
2022/03/20 11:27:11;;;;;;;9.50;4.00;;;;;;;-5.88;64.11;99904.00;5108066;28;20079;-82
2022/03/20 11:29:49;;;;;;;8.20;3.88;;;;;;;-6.01;64.98;99914.50;5102705;28;20249;-81
2022/03/20 11:32:20;;;;;;;7.28;3.83;;;;;;;-6.17;65.26;99915.47;5093449;28;20252;-81
2022/03/20 11:34:52;;;;;;;12.35;4.15;;;;;;;-6.32;65.88;99911.44;5091825;28;20040;-81
2022/03/20 11:37:23;;;;;;;7.13;3.47;;;;;;;-6.36;66.15;99918.88;5099681;28;20364;-81
2022/03/20 11:40:20;;;;;;;9.57;3.33;;;;;;;-6.58;66.27;99892.47;5089993;28;20233;-81
2022/03/20 11:42:52;;;;;;;5.00;3.30;;;;;;;-6.54;66.78;99914.69;5095275;28;20230;-85
2022/03/20 11:45:24;;;;;;;5.45;3.28;;;;;;;-6.43;66.56;99911.75;5083835;28;20355;-85
2022/03/20 11:48:14;;;;;;;6.07;3.28;;;;;;;-6.69;66.96;99902.91;5094902;28;20040;-84
2022/03/20 11:50:50;;;;;;;6.70;3.03;;;;;;;-6.45;66.57;99918.44;5086674;28;20483;-85
2022/03/20 11:53:29;;;;;;;4.85;2.92;;;;;;;-6.71;65.42;99849.50;5092021;28;20079;-85
2022/03/20 11:56:01;;;;;;;5.75;3.00;;;;;;;-6.35;65.54;99890.94;5091445;28;20308;-85
2022/03/20 11:58:40;;;;;;;3.88;3.17;;;;;;;-6.51;66.37;99919.91;5094957;28;20048;-85
2022/03/20 12:01:12;;;;;;;8.55;3.53;;;;;;;-6.27;65.98;99928.56;5083542;28;20119;-85
2022/03/20 12:03:54;;;;;;;3.47;2.70;;;;;;;-6.22;65.63;99922.88;5095770;28;20082;-85
2022/03/20 12:06:52;;;;;;;9.18;4.03;;;;;;;-6.34;65.92;99928.31;5086400;28;20040;-86
2022/03/20 12:09:39;;;;;;;3.97;2.80;;;;;;;-6.56;65.68;99885.78;5089004;28;20048;-86
2022/03/20 12:12:28;;;;;;;6.45;3.47;;;;;;;-6.39;65.80;99924.69;5091424;28;20041;-85
2022/03/20 12:15:10;;;;;;;5.07;3.20;;;;;;;-6.56;66.44;99925.59;5089357;28;20134;-85
2022/03/20 12:18:01;;;;;;;10.85;3.80;;;;;;;-6.68;66.78;99930.94;5083057;28;20062;-84
2022/03/20 12:21:06;;;;;;;5.78;2.92;;;;;;;-6.81;67.41;99933.72;5083111;28;20053;-84
2022/03/20 12:23:46;;;;;;;8.20;3.00;;;;;;;-6.89;67.42;99932.47;5083123;28;20059;-85
2022/03/20 12:26:36;;;;;;;5.05;2.97;;;;;;;-6.84;67.05;99928.47;5101231;28;20107;-84
2022/03/20 12:29:31;;;;;;;7.03;3.42;;;;;;;-6.82;67.13;99952.28;5097723;28;20288;-85
2022/03/20 12:32:12;;;;;;;5.50;3.28;;;;;;;-6.88;66.68;99936.78;5100413;28;20078;-84
2022/03/20 12:34:44;;;;;;;5.60;3.33;;;;;;;-6.71;66.58;99966.38;5104251;28;20107;-85
2022/03/20 12:37:37;;;;;;;8.25;3.17;;;;;;;-6.67;66.15;99967.38;5104838;28;20059;-85
2022/03/20 12:40:17;;;;;;;6.75;3.08;;;;;;;-6.79;66.15;99972.75;5105242;28;20052;-85